Time;durP1;ratioP1;P1;durP2;ratioP2;P2;SDS_P1;SDS_P2;PMS_P1;PMS_P2;Temp;Humidity;BMP_temperature;BMP_pressure;BME280_temperature;BME280_humidity;BME280_pressure;Samples;Min_cycle;Max_cycle;Signal;HPM_P1;HPM_P2
2023/01/10 00:02:05;;;;;;;16.93;2.93;;;;;;;3.25;100.00;101098.47;5096946;28;20059;-86
2023/01/10 00:04:33;;;;;;;14.65;3.00;;;;;;;3.27;100.00;101104.50;5095679;28;20062;-85
2023/01/10 00:06:59;;;;;;;18.17;3.22;;;;;;;3.24;100.00;101112.06;5113512;28;20077;-86
2023/01/10 00:09:27;;;;;;;13.97;2.90;;;;;;;3.21;100.00;101104.31;5113940;28;20375;-86
2023/01/10 00:14:36;;;;;;;14.45;2.97;;;;;;;3.11;100.00;101126.72;5114276;28;20096;-86
2023/01/10 00:17:02;;;;;;;13.93;2.40;;;;;;;3.11;100.00;101126.72;5113624;28;20421;-86
2023/01/10 00:19:27;;;;;;;19.17;3.33;;;;;;;3.11;100.00;101134.75;5113812;28;20131;-86
2023/01/10 00:22:06;;;;;;;18.33;4.07;;;;;;;3.07;100.00;101138.78;5095461;28;20039;-86
2023/01/10 00:24:32;;;;;;;25.63;4.85;;;;;;;3.12;100.00;101149.03;5096429;28;20076;-86
2023/01/10 00:26:58;;;;;;;13.93;2.80;;;;;;;3.07;100.00;101148.66;5095503;28;20027;-86
2023/01/10 00:29:30;;;;;;;16.15;2.17;;;;;;;3.03;100.00;101156.19;5113521;28;20034;-86
2023/01/10 00:31:56;;;;;;;15.25;2.70;;;;;;;2.97;100.00;101156.81;5095483;28;20036;-86
2023/01/10 00:34:22;;;;;;;29.50;3.37;;;;;;;2.91;100.00;101169.00;5098506;28;20130;-86
2023/01/10 00:36:47;;;;;;;19.88;4.05;;;;;;;2.88;100.00;101180.03;5098896;28;20020;-86
2023/01/10 00:39:14;;;;;;;21.10;2.97;;;;;;;2.86;100.00;101176.66;5098874;28;20028;-86
2023/01/10 00:44:30;;;;;;;14.00;2.90;;;;;;;2.78;100.00;101182.81;5117502;28;20047;-86
2023/01/10 00:46:59;;;;;;;19.50;3.60;;;;;;;2.77;100.00;101175.75;5117523;28;20102;-86
2023/01/10 00:49:24;;;;;;;18.50;3.42;;;;;;;2.78;100.00;101187.34;5098962;28;20024;-86
2023/01/10 00:51:50;;;;;;;17.47;3.27;;;;;;;2.80;100.00;101180.84;5117262;28;20467;-86
2023/01/10 00:54:16;;;;;;;17.53;3.43;;;;;;;2.88;100.00;101198.81;5098996;28;20016;-86
2023/01/10 00:56:41;;;;;;;13.75;2.67;;;;;;;2.97;100.00;101197.03;5098852;28;20027;-86
2023/01/10 00:59:07;;;;;;;17.67;3.73;;;;;;;3.03;100.00;101184.81;5099248;28;20122;-86
2023/01/10 01:01:32;;;;;;;16.58;3.13;;;;;;;3.10;100.00;101191.22;5099137;28;20065;-86
2023/01/10 01:04:00;;;;;;;15.73;2.85;;;;;;;3.11;100.00;101187.56;5098876;28;20024;-86
2023/01/10 01:06:26;;;;;;;20.42;3.22;;;;;;;3.14;100.00;101190.78;5098407;28;20114;-86
2023/01/10 01:08:52;;;;;;;18.67;3.80;;;;;;;3.09;100.00;101197.59;5098308;28;20023;-86
2023/01/10 01:11:17;;;;;;;20.80;4.10;;;;;;;3.09;100.00;101194.94;5082071;28;20035;-86
2023/01/10 01:13:43;;;;;;;12.83;3.50;;;;;;;3.06;100.00;101193.41;5098789;28;20032;-86
2023/01/10 01:16:08;;;;;;;16.07;3.70;;;;;;;3.12;100.00;101206.16;5116867;28;20032;-86
2023/01/10 01:18:34;;;;;;;18.57;4.67;;;;;;;3.16;100.00;101212.06;5098517;28;20027;-86
2023/01/10 01:21:02;;;;;;;29.83;6.15;;;;;;;3.16;100.00;101220.94;5098484;28;20032;-86
2023/01/10 01:23:33;;;;;;;31.43;8.10;;;;;;;3.11;100.00;101225.94;5098367;28;20032;-86
2023/01/10 01:25:59;;;;;;;30.10;9.02;;;;;;;3.13;100.00;101229.31;5097442;28;20443;-86
2023/01/10 01:28:27;;;;;;;29.87;9.23;;;;;;;3.13;100.00;101228.44;5081691;28;20076;-86
2023/01/10 01:30:52;;;;;;;31.70;8.63;;;;;;;3.14;100.00;101235.50;5098079;28;20273;-86
2023/01/10 01:33:18;;;;;;;32.45;10.35;;;;;;;3.09;100.00;101237.81;5098527;28;20035;-86
2023/01/10 01:35:46;;;;;;;27.47;8.10;;;;;;;3.02;100.00;101236.75;5064795;28;20038;-86
2023/01/10 01:38:15;;;;;;;35.40;9.80;;;;;;;3.02;100.00;101237.59;5097718;28;20371;-87
2023/01/10 01:40:43;;;;;;;29.13;10.05;;;;;;;3.11;100.00;101257.28;5097089;28;20040;-86
2023/01/10 01:43:26;;;;;;;25.15;8.10;;;;;;;3.12;100.00;101248.22;5115855;28;20030;-86
2023/01/10 01:45:57;;;;;;;27.33;8.07;;;;;;;3.19;100.00;101260.03;5098281;28;20383;-86
2023/01/10 01:48:36;;;;;;;20.33;6.20;;;;;;;3.26;100.00;101249.50;5098490;28;20276;-85
2023/01/10 01:51:17;;;;;;;24.42;6.18;;;;;;;3.33;100.00;101275.53;5116231;28;20031;-86
2023/01/10 01:53:48;;;;;;;24.85;5.95;;;;;;;3.27;100.00;101259.22;5097654;28;20466;-86
2023/01/10 01:56:28;;;;;;;26.02;5.65;;;;;;;3.31;100.00;101263.28;5098009;28;20133;-85
2023/01/10 01:59:00;;;;;;;13.60;3.38;;;;;;;3.34;100.00;101269.16;5116616;28;20132;-86
2023/01/10 02:01:28;;;;;;;18.23;4.05;;;;;;;3.38;100.00;101269.72;5097861;28;20031;-86
2023/01/10 02:04:02;;;;;;;18.02;3.88;;;;;;;3.38;100.00;101261.66;5098444;28;20493;-86
2023/01/10 02:06:27;;;;;;;16.75;4.95;;;;;;;3.44;100.00;101273.56;5115694;28;20467;-86
2023/01/10 02:09:07;;;;;;;31.03;4.70;;;;;;;3.45;100.00;101281.47;5063645;28;20036;-85
2023/01/10 02:11:33;;;;;;;28.40;4.38;;;;;;;3.44;100.00;101262.84;5098013;28;20098;-85
2023/01/10 02:13:59;;;;;;;26.38;4.88;;;;;;;3.44;100.00;101282.47;5097285;28;20036;-86
2023/01/10 02:16:25;;;;;;;17.13;4.53;;;;;;;3.46;100.00;101285.84;5097650;28;20475;-86
2023/01/10 02:18:50;;;;;;;15.27;4.38;;;;;;;3.39;100.00;101287.47;5080463;28;20020;-85
2023/01/10 02:22:00;;;;;;;28.83;4.13;;;;;;;3.38;100.00;101291.16;5097191;28;20507;-85
2023/01/10 02:24:50;;;;;;;24.63;4.45;;;;;;;3.38;100.00;101285.81;5097741;28;20032;-85
2023/01/10 02:27:50;;;;;;;23.60;3.87;;;;;;;3.34;100.00;101274.53;5097172;28;20030;-86
2023/01/10 02:30:48;;;;;;;21.63;3.20;;;;;;;3.29;100.00;101284.03;5097297;28;20036;-85
2023/01/10 02:33:26;;;;;;;16.40;3.08;;;;;;;3.30;100.00;101280.38;5096273;28;20498;-85
2023/01/10 02:36:03;;;;;;;14.95;3.67;;;;;;;3.24;100.00;101281.00;5096874;28;20035;-85
2023/01/10 02:39:01;;;;;;;22.45;3.90;;;;;;;3.20;100.00;101279.63;5096679;28;20027;-86
2023/01/10 02:41:45;;;;;;;20.70;3.90;;;;;;;3.12;100.00;101272.38;5045578;28;20101;-85
2023/01/10 02:44:19;;;;;;;20.42;3.53;;;;;;;3.12;100.00;101278.56;5076563;28;20040;-85
2023/01/10 02:46:46;;;;;;;22.50;3.40;;;;;;;3.06;100.00;101278.34;5094558;28;20523;-85
2023/01/10 02:49:12;;;;;;;16.15;3.47;;;;;;;3.00;100.00;101279.81;5094655;28;20028;-85
2023/01/10 02:51:37;;;;;;;25.83;3.53;;;;;;;2.96;100.00;101287.31;5059773;28;20039;-85
2023/01/10 02:54:07;;;;;;;19.60;3.77;;;;;;;2.96;100.00;101298.03;5075876;28;20031;-85
2023/01/10 02:57:18;;;;;;;24.02;4.15;;;;;;;2.96;100.00;101299.88;5093673;28;20039;-85
2023/01/10 02:59:56;;;;;;;20.60;3.28;;;;;;;2.92;100.00;101307.41;5076667;28;20384;-85
2023/01/10 03:02:32;;;;;;;22.35;3.65;;;;;;;2.90;100.00;101305.88;5076365;28;20032;-85
2023/01/10 03:05:22;;;;;;;22.70;3.93;;;;;;;2.88;100.00;101311.38;5076488;28;20115;-86
2023/01/10 03:08:29;;;;;;;19.80;2.83;;;;;;;2.86;100.00;101325.91;5076222;28;20035;-86
2023/01/10 03:10:54;;;;;;;21.33;3.30;;;;;;;2.86;100.00;101328.59;5076052;28;20349;-85
2023/01/10 03:13:36;;;;;;;16.70;2.20;;;;;;;2.89;100.00;101318.41;5076183;28;20092;-86
2023/01/10 03:16:06;;;;;;;16.25;3.75;;;;;;;2.88;100.00;101318.56;5075934;28;20016;-86
2023/01/10 03:18:40;;;;;;;22.85;3.22;;;;;;;2.91;100.00;101324.47;5075825;28;20028;-86
2023/01/10 03:21:10;;;;;;;25.02;3.92;;;;;;;2.95;100.00;101344.63;5075869;28;20049;-86
2023/01/10 03:23:39;;;;;;;23.93;2.63;;;;;;;2.97;100.00;101347.97;5076289;28;20028;-86
2023/01/10 03:26:07;;;;;;;26.65;3.97;;;;;;;3.01;100.00;101348.50;5066961;28;20431;-86
2023/01/10 03:28:59;;;;;;;16.23;2.80;;;;;;;3.09;100.00;101369.22;5075798;28;20046;-86
2023/01/10 03:31:33;;;;;;;21.70;2.95;;;;;;;3.11;100.00;101343.06;5075782;28;20031;-86
2023/01/10 03:33:58;;;;;;;19.65;3.60;;;;;;;3.12;100.00;101359.00;5076533;28;20032;-86
2023/01/10 03:36:41;;;;;;;18.43;2.30;;;;;;;3.15;100.00;101349.81;5075380;28;20036;-85
2023/01/10 03:39:35;;;;;;;19.40;3.25;;;;;;;3.15;100.00;101363.22;5093735;28;20077;-85
2023/01/10 03:42:12;;;;;;;25.63;3.37;;;;;;;3.20;100.00;101371.63;5095861;28;20114;-86
2023/01/10 03:45:08;;;;;;;19.10;2.90;;;;;;;3.21;100.00;101357.25;5095638;28;20293;-85
2023/01/10 03:47:48;;;;;;;23.98;2.85;;;;;;;3.18;100.00;101367.44;5096735;28;20023;-86
2023/01/10 03:50:21;;;;;;;25.55;3.08;;;;;;;3.22;100.00;101363.44;5095515;28;20061;-85
2023/01/10 03:52:46;;;;;;;16.80;2.72;;;;;;;3.20;100.00;101368.13;5114182;28;20031;-83
2023/01/10 03:55:17;;;;;;;19.67;3.00;;;;;;;3.21;100.00;101369.81;5114295;28;20028;-83
2023/01/10 03:57:44;;;;;;;26.27;3.55;;;;;;;3.24;100.00;101374.88;5113806;28;20035;-83
2023/01/10 04:00:10;;;;;;;22.88;2.58;;;;;;;3.31;100.00;101378.63;5096101;28;20100;-83
2023/01/10 04:02:36;;;;;;;24.27;3.10;;;;;;;3.28;100.00;101400.38;5096004;28;20055;-83
2023/01/10 04:05:01;;;;;;;15.68;1.73;;;;;;;3.41;100.00;101392.78;5095779;28;20395;-84
2023/01/10 04:07:30;;;;;;;22.90;2.70;;;;;;;3.33;100.00;101396.22;5098625;28;20475;-83
2023/01/10 04:09:55;;;;;;;19.55;2.88;;;;;;;3.31;100.00;101392.84;5118114;28;20063;-83
2023/01/10 04:12:22;;;;;;;24.10;3.30;;;;;;;3.34;100.00;101399.75;5118348;28;20070;-83
2023/01/10 04:14:47;;;;;;;28.88;3.50;;;;;;;3.34;100.00;101399.75;5118530;28;20073;-83
2023/01/10 04:17:14;;;;;;;18.00;2.47;;;;;;;3.31;100.00;101403.59;5100182;28;20041;-83
2023/01/10 04:19:40;;;;;;;22.23;3.25;;;;;;;3.28;100.00;101413.81;5099975;28;20032;-84
2023/01/10 04:22:06;;;;;;;19.42;2.80;;;;;;;3.31;100.00;101414.31;5083392;28;20054;-83
2023/01/10 04:24:31;;;;;;;23.03;2.70;;;;;;;3.36;100.00;101413.03;5099216;28;20039;-83
2023/01/10 04:26:57;;;;;;;27.10;3.08;;;;;;;3.36;100.00;101418.38;5099894;28;20035;-83
2023/01/10 04:29:22;;;;;;;24.48;2.53;;;;;;;3.43;100.00;101422.13;5083509;28;20134;-83
2023/01/10 04:31:48;;;;;;;24.60;2.60;;;;;;;3.43;100.00;101425.66;5083392;28;20401;-83
2023/01/10 04:34:14;;;;;;;26.98;3.53;;;;;;;3.45;100.00;101420.97;5082560;28;20031;-83
2023/01/10 04:36:40;;;;;;;22.40;2.93;;;;;;;3.43;100.00;101419.47;5083336;28;20047;-83
2023/01/10 04:39:09;;;;;;;25.08;2.90;;;;;;;3.41;100.00;101414.25;5099238;28;20030;-83
2023/01/10 04:41:34;;;;;;;27.73;3.25;;;;;;;3.42;100.00;101413.22;5066134;28;20055;-83
2023/01/10 04:44:00;;;;;;;24.57;3.27;;;;;;;3.36;100.00;101400.44;5097149;28;20032;-81
2023/01/10 04:46:25;;;;;;;19.13;2.30;;;;;;;3.40;100.00;101409.88;5078897;28;20077;-82
2023/01/10 04:48:51;;;;;;;19.38;3.08;;;;;;;3.43;100.00;101420.28;5062072;28;20048;-82
2023/01/10 04:51:17;;;;;;;25.67;2.47;;;;;;;3.42;100.00;101428.50;5079410;28;20430;-81
2023/01/10 04:53:42;;;;;;;29.30;3.00;;;;;;;3.42;100.00;101436.53;5096557;28;20480;-82
2023/01/10 04:56:19;;;;;;;27.43;2.57;;;;;;;3.50;100.00;101431.25;5078895;28;20409;-81
2023/01/10 04:58:45;;;;;;;20.65;2.85;;;;;;;3.45;100.00;101429.00;5079470;28;20505;-81
2023/01/10 05:01:19;;;;;;;30.33;3.43;;;;;;;3.47;100.00;101426.19;5062071;28;20040;-82
2023/01/10 05:03:52;;;;;;;29.48;3.20;;;;;;;3.41;100.00;101422.31;5096491;28;20480;-81
2023/01/10 05:06:19;;;;;;;17.60;2.85;;;;;;;3.38;100.00;101413.69;5096467;28;20060;-83
2023/01/10 05:08:44;;;;;;;16.80;2.80;;;;;;;3.41;100.00;101426.81;5096222;28;20039;-84
2023/01/10 05:11:11;;;;;;;26.10;3.17;;;;;;;3.45;100.00;101428.19;5078103;28;20032;-84
2023/01/10 05:13:38;;;;;;;26.42;2.55;;;;;;;3.38;100.00;101435.16;5079045;28;20063;-83
2023/01/10 05:16:04;;;;;;;27.08;2.92;;;;;;;3.39;100.00;101458.31;5096408;28;20035;-83
2023/01/10 05:18:29;;;;;;;20.50;3.20;;;;;;;3.39;100.00;101477.09;5060435;28;20396;-84
2023/01/10 05:21:00;;;;;;;24.58;2.97;;;;;;;3.48;100.00;101494.94;5077963;28;20057;-83
2023/01/10 05:23:25;;;;;;;16.00;2.80;;;;;;;3.53;100.00;101494.47;5096350;28;20569;-83
2023/01/10 05:25:51;;;;;;;23.53;2.43;;;;;;;3.54;100.00;101480.09;5078194;28;20062;-83
2023/01/10 05:28:16;;;;;;;26.70;3.67;;;;;;;3.55;100.00;101481.78;5061432;28;20457;-83
2023/01/10 05:30:42;;;;;;;29.58;3.20;;;;;;;3.64;100.00;101487.03;5096161;28;20107;-83
2023/01/10 05:33:07;;;;;;;22.63;2.60;;;;;;;3.66;100.00;101489.56;5096180;28;20081;-83
2023/01/10 05:35:33;;;;;;;26.37;3.13;;;;;;;3.66;100.00;101485.06;5077846;28;20042;-81
2023/01/10 05:37:59;;;;;;;25.15;3.25;;;;;;;3.65;100.00;101471.81;5077531;28;20028;-81
2023/01/10 05:40:24;;;;;;;22.23;2.17;;;;;;;3.72;100.00;101485.44;5067491;28;20487;-81
2023/01/10 05:42:50;;;;;;;25.77;3.00;;;;;;;3.74;100.00;101478.09;5098124;28;20119;-81
2023/01/10 05:45:15;;;;;;;17.60;2.60;;;;;;;3.74;100.00;101484.28;5098010;28;20023;-82
2023/01/10 05:47:41;;;;;;;21.20;2.65;;;;;;;3.70;100.00;101493.63;5097658;28;20080;-82
2023/01/10 05:50:09;;;;;;;26.47;2.53;;;;;;;3.71;100.00;101503.38;5097648;28;20028;-82
2023/01/10 05:52:35;;;;;;;18.60;3.35;;;;;;;3.79;100.00;101505.28;5065680;28;20036;-81
2023/01/10 05:55:02;;;;;;;32.97;3.30;;;;;;;3.73;100.00;101501.38;5097339;28;20391;-82
2023/01/10 05:57:28;;;;;;;22.58;2.40;;;;;;;3.70;100.00;101523.16;5097786;28;20032;-82
2023/01/10 05:59:53;;;;;;;26.27;3.57;;;;;;;3.73;100.00;101522.84;5081510;28;20528;-83
2023/01/10 06:02:19;;;;;;;16.67;2.77;;;;;;;3.72;100.00;101520.31;5115566;28;20032;-84
2023/01/10 06:04:44;;;;;;;36.63;3.00;;;;;;;3.74;100.00;101510.31;5080698;28;20088;-84
2023/01/10 06:07:09;;;;;;;23.13;2.88;;;;;;;3.76;100.00;101521.72;5080405;28;20107;-83
2023/01/10 06:09:35;;;;;;;30.10;3.30;;;;;;;3.76;100.00;101519.84;5115980;28;20531;-83
2023/01/10 06:12:00;;;;;;;26.43;2.90;;;;;;;3.76;100.00;101519.84;5115740;28;20111;-83
2023/01/10 06:14:26;;;;;;;26.57;2.67;;;;;;;3.73;100.00;101516.66;5097325;28;20460;-83
2023/01/10 06:16:51;;;;;;;21.27;2.40;;;;;;;3.71;100.00;101519.50;5097449;28;20066;-83
2023/01/10 06:19:17;;;;;;;18.07;2.73;;;;;;;3.67;100.00;101508.19;5080071;28;20036;-83
2023/01/10 06:21:42;;;;;;;25.37;2.13;;;;;;;3.68;100.00;101515.28;5080997;28;20074;-83
2023/01/10 06:24:08;;;;;;;37.67;2.87;;;;;;;3.69;100.00;101516.09;5080372;28;20035;-83
2023/01/10 06:26:34;;;;;;;26.42;2.35;;;;;;;3.63;100.00;101509.53;5097198;28;20471;-83
2023/01/10 06:28:59;;;;;;;22.37;2.67;;;;;;;3.65;100.00;101520.13;5080102;28;20117;-83
2023/01/10 06:31:25;;;;;;;16.02;2.80;;;;;;;3.63;100.00;101532.81;5096828;28;20407;-83
2023/01/10 06:33:51;;;;;;;24.73;3.23;;;;;;;3.59;100.00;101529.63;5096872;28;20057;-83
2023/01/10 06:36:16;;;;;;;26.38;2.83;;;;;;;3.58;100.00;101527.09;5096597;28;20084;-83
2023/01/10 06:38:42;;;;;;;20.63;2.63;;;;;;;3.57;100.00;101522.69;5080468;28;20031;-83
2023/01/10 06:41:14;;;;;;;23.73;2.75;;;;;;;3.53;100.00;101532.91;5114815;28;20055;-83
2023/01/10 06:43:44;;;;;;;22.52;2.58;;;;;;;3.46;100.00;101527.28;5096635;28;20024;-83
2023/01/10 06:46:11;;;;;;;28.58;3.17;;;;;;;3.40;100.00;101538.63;5097840;28;20035;-83
2023/01/10 06:48:37;;;;;;;24.63;2.50;;;;;;;3.41;100.00;101551.06;5079603;28;20035;-83
2023/01/10 06:51:06;;;;;;;24.35;2.78;;;;;;;3.31;100.00;101539.56;5098771;28;20066;-83
2023/01/10 06:53:31;;;;;;;23.27;3.88;;;;;;;3.25;100.00;101551.72;5079454;28;20035;-83
2023/01/10 06:55:57;;;;;;;22.13;2.63;;;;;;;3.22;100.00;101564.56;5096449;28;20028;-83
2023/01/10 06:58:22;;;;;;;31.30;3.20;;;;;;;3.13;100.00;101567.16;5096152;28;20032;-83
2023/01/10 07:00:48;;;;;;;19.88;2.53;;;;;;;3.11;100.00;101571.00;5079204;28;20464;-83
2023/01/10 07:03:14;;;;;;;26.33;2.58;;;;;;;3.04;100.00;101568.06;5114645;28;20036;-83
2023/01/10 07:05:39;;;;;;;22.23;2.25;;;;;;;3.02;100.00;101566.53;5096514;28;20139;-83
2023/01/10 07:08:05;;;;;;;23.17;2.40;;;;;;;3.06;100.00;101584.84;5096286;28;20122;-83
2023/01/10 07:10:30;;;;;;;22.07;3.00;;;;;;;3.02;100.00;101590.66;5095873;28;20530;-83
2023/01/10 07:12:57;;;;;;;25.08;2.85;;;;;;;3.04;100.00;101592.19;5095428;28;20387;-83
2023/01/10 07:15:23;;;;;;;18.77;2.60;;;;;;;3.05;100.00;101593.88;5095206;28;20425;-82
2023/01/10 07:17:48;;;;;;;23.83;2.90;;;;;;;3.09;100.00;101606.00;5096183;28;20035;-83
2023/01/10 07:20:14;;;;;;;21.83;2.83;;;;;;;3.12;100.00;101605.69;5113817;28;20024;-83
2023/01/10 07:22:39;;;;;;;26.10;3.40;;;;;;;3.11;100.00;101601.31;5078821;28;20032;-83
2023/01/10 07:25:05;;;;;;;25.57;2.80;;;;;;;3.10;100.00;101614.88;5114391;28;20483;-83
2023/01/10 07:27:31;;;;;;;23.13;2.67;;;;;;;3.12;100.00;101610.22;5079278;28;20467;-83
2023/01/10 07:29:57;;;;;;;29.13;2.60;;;;;;;3.11;100.00;101609.34;5113673;28;20278;-84
2023/01/10 07:32:23;;;;;;;21.00;2.40;;;;;;;3.13;100.00;101622.63;5113877;28;20034;-83
2023/01/10 07:34:49;;;;;;;16.95;1.98;;;;;;;3.15;100.00;101626.84;5095876;28;20394;-83
2023/01/10 07:37:16;;;;;;;32.47;3.43;;;;;;;3.14;100.00;101635.91;5113793;28;20024;-84
2023/01/10 07:39:42;;;;;;;19.45;2.35;;;;;;;3.15;100.00;101642.09;5113741;28;20020;-88
2023/01/10 07:42:08;;;;;;;27.23;3.17;;;;;;;3.16;100.00;101641.97;5061728;28;20042;-84
2023/01/10 07:44:34;;;;;;;27.55;2.35;;;;;;;3.11;100.00;101632.66;5079166;28;20081;-84
2023/01/10 07:46:59;;;;;;;15.77;2.27;;;;;;;3.09;100.00;101648.06;5078689;28;20024;-83
2023/01/10 07:49:25;;;;;;;19.50;2.22;;;;;;;3.07;100.00;101640.16;5095454;28;20030;-83
2023/01/10 07:51:50;;;;;;;23.42;3.10;;;;;;;3.03;100.00;101649.50;5095001;28;20114;-85
2023/01/10 07:54:16;;;;;;;16.67;2.20;;;;;;;2.98;100.00;101647.25;5095120;28;20061;-83
2023/01/10 07:56:41;;;;;;;27.30;2.60;;;;;;;2.99;100.00;101653.44;5079108;28;20478;-83
2023/01/10 07:59:07;;;;;;;14.50;2.80;;;;;;;2.99;100.00;101650.75;5095160;28;20320;-84
2023/01/10 08:01:32;;;;;;;25.10;2.53;;;;;;;2.95;100.00;101652.91;5079468;28;20077;-83
2023/01/10 08:03:57;;;;;;;19.03;2.37;;;;;;;2.92;100.00;101638.94;5095626;28;20468;-83
2023/01/10 08:06:23;;;;;;;21.57;2.70;;;;;;;2.89;100.00;101653.47;5078908;28;20032;-83
2023/01/10 08:08:49;;;;;;;32.47;2.50;;;;;;;2.94;100.00;101650.38;5095677;28;20024;-83
2023/01/10 08:11:14;;;;;;;22.35;2.65;;;;;;;2.86;100.00;101651.06;5078849;28;20628;-83
2023/01/10 08:13:39;;;;;;;23.87;2.90;;;;;;;2.83;100.00;101646.00;5113562;28;20100;-83
2023/01/10 08:16:07;;;;;;;27.80;2.80;;;;;;;2.86;100.00;101655.59;5078485;28;20027;-82
2023/01/10 08:18:32;;;;;;;13.60;2.40;;;;;;;2.91;100.00;101640.78;5095802;28;20032;-83
2023/01/10 08:20:58;;;;;;;29.93;2.60;;;;;;;2.96;100.00;101641.16;5079213;28;20470;-83
2023/01/10 08:23:23;;;;;;;22.45;2.50;;;;;;;2.96;100.00;101640.34;5113729;28;20032;-83
2023/01/10 08:25:50;;;;;;;22.27;2.23;;;;;;;2.95;100.00;101644.88;5095347;28;20032;-83
2023/01/10 08:28:16;;;;;;;19.42;2.70;;;;;;;2.96;100.00;101643.00;5095913;28;20055;-83
2023/01/10 08:30:41;;;;;;;19.77;2.57;;;;;;;3.01;100.00;101654.13;5096251;28;20055;-83
2023/01/10 08:33:08;;;;;;;29.27;2.97;;;;;;;3.05;100.00;101665.44;5078825;28;20353;-83
2023/01/10 08:35:39;;;;;;;27.20;3.00;;;;;;;3.09;100.00;101661.47;5095242;28;20073;-83
2023/01/10 08:38:04;;;;;;;21.52;2.30;;;;;;;3.11;100.00;101659.47;5095390;28;20270;-81
2023/01/10 08:40:30;;;;;;;21.52;2.90;;;;;;;3.19;100.00;101664.97;5078111;28;20113;-81
2023/01/10 08:43:00;;;;;;;26.77;2.43;;;;;;;3.19;100.00;101659.59;5078586;28;20434;-80
2023/01/10 08:45:26;;;;;;;21.25;2.72;;;;;;;3.21;100.00;101644.19;5113289;28;20491;-81
2023/01/10 08:47:52;;;;;;;24.52;2.42;;;;;;;3.26;100.00;101649.13;5095297;28;20115;-82
2023/01/10 08:50:18;;;;;;;22.20;2.58;;;;;;;3.30;100.00;101656.72;5095049;28;20062;-83
2023/01/10 08:52:43;;;;;;;27.90;2.73;;;;;;;3.38;100.00;101653.31;5061685;28;20039;-83
2023/01/10 08:55:09;;;;;;;22.07;2.57;;;;;;;3.40;100.00;101659.38;5098827;28;20027;-83
2023/01/10 08:57:35;;;;;;;27.23;2.63;;;;;;;3.46;100.00;101642.66;5098823;28;20023;-83
2023/01/10 09:00:01;;;;;;;23.77;2.37;;;;;;;3.55;100.00;101650.81;5098811;28;20437;-83
2023/01/10 09:02:29;;;;;;;26.42;2.70;;;;;;;3.56;100.00;101647.13;5081987;28;20047;-82
2023/01/10 09:04:54;;;;;;;22.20;2.78;;;;;;;3.63;100.00;101641.03;5098512;28;20059;-83
2023/01/10 09:07:20;;;;;;;21.05;1.95;;;;;;;3.68;100.00;101643.25;5081977;28;20069;-83
2023/01/10 09:09:45;;;;;;;19.83;2.13;;;;;;;3.73;100.00;101642.81;5082004;28;20038;-81
2023/01/10 09:14:56;;;;;;;17.83;2.40;;;;;;;3.83;100.00;101652.47;5101554;28;20092;-82
2023/01/10 09:17:21;;;;;;;19.90;2.03;;;;;;;3.77;100.00;101633.47;5117135;28;20032;-83
2023/01/10 09:19:47;;;;;;;21.70;2.58;;;;;;;3.90;100.00;101639.31;5081593;28;20042;-82
2023/01/10 09:22:12;;;;;;;21.03;2.10;;;;;;;3.82;100.00;101631.16;5098278;28;20036;-83
2023/01/10 09:24:38;;;;;;;15.63;2.00;;;;;;;3.85;100.00;101641.59;5081912;28;20036;-82
2023/01/10 09:27:03;;;;;;;30.47;2.90;;;;;;;3.91;100.00;101642.81;5064582;28;20047;-82
2023/01/10 09:29:29;;;;;;;27.60;3.35;;;;;;;3.95;100.00;101631.63;5098587;28;20277;-82
2023/01/10 09:31:54;;;;;;;16.03;2.20;;;;;;;3.92;100.00;101629.25;5116164;28;20080;-83
2023/01/10 09:34:21;;;;;;;24.40;2.80;;;;;;;4.00;100.00;101637.41;5081701;28;20055;-83
2023/01/10 09:36:47;;;;;;;21.15;2.10;;;;;;;4.00;100.00;101628.47;5065140;28;20173;-82
2023/01/10 09:39:12;;;;;;;20.65;2.55;;;;;;;4.06;100.00;101640.44;5098244;28;20145;-81
2023/01/10 09:41:49;;;;;;;26.67;3.27;;;;;;;4.13;100.00;101628.94;5081163;28;20051;-81
2023/01/10 09:44:25;;;;;;;20.17;2.88;;;;;;;4.29;100.00;101628.25;5098772;28;20031;-80
2023/01/10 09:47:12;;;;;;;14.52;1.90;;;;;;;4.28;100.00;101633.78;5097958;28;20065;-82
2023/01/10 09:49:46;;;;;;;18.30;2.08;;;;;;;4.33;100.00;101636.84;5098718;28;20131;-82
2023/01/10 09:52:22;;;;;;;18.25;2.08;;;;;;;4.40;100.00;101629.88;5098078;28;20127;-81
2023/01/10 09:54:53;;;;;;;17.08;2.13;;;;;;;4.49;100.00;101636.97;5116065;28;20110;-82
2023/01/10 09:57:21;;;;;;;29.90;2.70;;;;;;;4.51;100.00;101624.22;5116115;28;20039;-82
2023/01/10 09:59:50;;;;;;;22.80;3.55;;;;;;;4.56;100.00;101627.31;5097968;28;20439;-82
2023/01/10 10:02:41;;;;;;;20.17;2.63;;;;;;;4.63;100.00;101627.50;5081729;28;20030;-81
2023/01/10 10:05:20;;;;;;;19.33;2.72;;;;;;;4.65;100.00;101625.50;5115305;28;20387;-81
2023/01/10 10:07:52;;;;;;;17.17;3.05;;;;;;;4.70;100.00;101630.41;5097749;28;20040;-82
2023/01/10 10:10:39;;;;;;;19.77;2.28;;;;;;;4.77;100.00;101630.59;5097171;28;20038;-82
2023/01/10 10:13:32;;;;;;;15.32;2.83;;;;;;;4.76;100.00;101619.03;5096956;28;20031;-82
2023/01/10 10:16:13;;;;;;;19.45;3.28;;;;;;;4.80;100.00;101622.22;5097789;28;20035;-82
2023/01/10 10:18:38;;;;;;;17.83;2.45;;;;;;;4.85;100.00;101607.31;5098099;28;20118;-81
2023/01/10 10:21:12;;;;;;;19.80;2.55;;;;;;;4.91;100.00;101611.22;5115282;28;20058;-83
2023/01/10 10:23:40;;;;;;;16.47;2.07;;;;;;;4.97;100.00;101610.56;5115992;28;20111;-81
2023/01/10 10:26:16;;;;;;;24.15;2.33;;;;;;;4.96;100.00;101603.53;5097824;28;20023;-81
2023/01/10 10:28:54;;;;;;;22.38;2.97;;;;;;;5.00;100.00;101598.66;5097758;28;20027;-81
2023/01/10 10:31:22;;;;;;;16.77;2.10;;;;;;;5.04;100.00;101600.88;5097681;28;20375;-81
2023/01/10 10:34:14;;;;;;;21.10;2.78;;;;;;;5.08;100.00;101596.84;5097506;28;20032;-81
2023/01/10 10:36:58;;;;;;;16.40;2.03;;;;;;;5.15;100.00;101588.97;5096956;28;20126;-81
2023/01/10 10:40:02;;;;;;;20.15;1.88;;;;;;;5.19;100.00;101592.19;5097444;28;20321;-81
2023/01/10 10:42:36;;;;;;;19.05;1.98;;;;;;;5.16;100.00;101576.38;5095844;28;20054;-81
2023/01/10 10:45:06;;;;;;;19.30;2.22;;;;;;;5.17;100.00;101562.75;5114982;28;20032;-81
2023/01/10 10:47:37;;;;;;;11.73;1.92;;;;;;;5.21;100.00;101566.81;5115069;28;20028;-81
2023/01/10 10:50:12;;;;;;;15.80;1.90;;;;;;;5.26;100.00;101563.63;5096301;28;20053;-81
2023/01/10 10:52:37;;;;;;;13.15;2.10;;;;;;;5.32;100.00;101565.66;5097325;28;20042;-81
2023/01/10 10:55:05;;;;;;;21.70;2.33;;;;;;;5.39;100.00;101558.63;5079628;28;20035;-83
2023/01/10 10:57:37;;;;;;;18.73;2.60;;;;;;;5.41;100.00;101559.28;5114244;28;20032;-83
2023/01/10 11:00:06;;;;;;;14.38;2.67;;;;;;;5.56;100.00;101543.34;5079441;28;20035;-83
2023/01/10 11:02:40;;;;;;;18.83;2.47;;;;;;;5.53;100.00;101545.53;5096114;28;20039;-82
2023/01/10 11:05:14;;;;;;;14.68;2.50;;;;;;;5.55;100.00;101549.75;5114424;28;20032;-81
2023/01/10 11:07:40;;;;;;;22.13;2.60;;;;;;;5.58;100.00;101533.28;5114638;28;20066;-81
2023/01/10 11:13:00;;;;;;;14.97;1.27;;;;;;;5.63;100.00;101538.16;5114715;28;20173;-81
2023/01/10 11:15:56;;;;;;;12.48;2.00;;;;;;;5.65;100.00;101517.28;5095747;28;20072;-81
2023/01/10 11:18:29;;;;;;;15.68;2.20;;;;;;;5.60;100.00;101517.78;5074794;28;20047;-81
2023/01/10 11:21:10;;;;;;;18.23;2.15;;;;;;;5.64;100.00;101518.31;5114557;28;20027;-81
2023/01/10 11:23:38;;;;;;;21.02;2.80;;;;;;;5.69;100.00;101515.94;5096266;28;20070;-81
2023/01/10 11:26:07;;;;;;;15.17;2.20;;;;;;;5.70;100.00;101519.47;5096297;28;20399;-81
2023/01/10 11:28:36;;;;;;;18.58;2.55;;;;;;;5.77;100.00;101507.88;5114459;28;20054;-82
2023/01/10 11:31:02;;;;;;;13.82;2.40;;;;;;;5.76;100.00;101516.97;5096265;28;20084;-82
2023/01/10 11:33:38;;;;;;;17.80;3.10;;;;;;;5.78;100.00;101517.63;5095853;28;20031;-81
2023/01/10 11:36:07;;;;;;;14.93;3.25;;;;;;;5.79;100.00;101513.09;5114204;28;20125;-81
2023/01/10 11:38:34;;;;;;;17.43;2.73;;;;;;;5.82;100.00;101518.16;5095924;28;20052;-83
2023/01/10 11:41:22;;;;;;;16.20;2.30;;;;;;;5.84;100.00;101512.59;5095643;28;20415;-83